createdAt,value
2023-02-14T04:49:07.688Z,0.00
2023-02-14T04:50:07.556Z,0.00
2023-02-14T04:51:07.990Z,0.00
2023-02-14T04:52:08.336Z,0.00
2023-02-14T04:53:08.814Z,0.00
2023-02-14T04:54:08.919Z,0.00
2023-02-14T04:55:09.217Z,0.00
2023-02-14T04:56:10.024Z,0.00
2023-02-14T04:57:10.562Z,0.00
2023-02-14T04:58:11.116Z,0.00
2023-02-14T04:59:12.041Z,0.00
2023-02-14T05:00:12.330Z,0.00
2023-02-14T05:01:12.584Z,0.00
2023-02-14T05:02:12.622Z,0.00
2023-02-14T05:03:12.678Z,0.00
2023-02-14T05:04:13.097Z,0.00
2023-02-14T05:05:13.175Z,0.00
2023-02-14T05:06:13.278Z,0.00
2023-02-14T05:07:13.688Z,0.00
2023-02-14T05:08:13.732Z,0.00
2023-02-14T05:09:13.747Z,0.00
2023-02-14T05:10:13.975Z,0.00
2023-02-14T05:11:14.861Z,0.00
2023-02-14T05:12:15.384Z,0.00
2023-02-14T05:13:15.423Z,0.00
2023-02-14T05:14:15.932Z,0.00
2023-02-14T05:15:16.053Z,0.00
2023-02-14T05:16:16.101Z,0.00
2023-02-14T05:17:16.329Z,0.00
2023-02-14T05:18:17.232Z,0.00
2023-02-14T05:19:18.149Z,0.00
2023-02-14T05:19:26.819Z,0.00
2023-02-14T05:20:27.338Z,0.00
2023-02-14T05:21:28.363Z,0.00
2023-02-14T05:22:28.596Z,0.00
2023-02-14T05:23:29.149Z,0.00
2023-02-14T05:24:30.129Z,0.00
2023-02-14T05:25:31.016Z,0.00
2023-02-14T05:26:31.564Z,0.00
2023-02-14T05:27:31.706Z,0.00
2023-02-14T05:28:31.801Z,0.00
2023-02-14T05:29:32.304Z,0.00
2023-02-14T05:30:32.808Z,0.00
2023-02-14T05:31:33.347Z,0.00
2023-02-14T05:32:33.626Z,0.00
2023-02-14T05:33:34.572Z,0.00
2023-02-14T05:34:34.849Z,0.00
2023-02-14T05:35:35.105Z,0.00
2023-02-14T05:36:35.137Z,0.00
2023-02-14T05:37:35.988Z,0.00
2023-02-14T05:38:36.602Z,0.00
2023-02-14T05:39:36.971Z,0.00
2023-02-14T05:40:37.249Z,0.00
2023-02-14T05:41:39.261Z,0.00
2023-02-14T05:42:38.903Z,0.00
2023-02-14T05:43:39.147Z,0.00
2023-02-14T05:44:39.409Z,0.00
2023-02-14T05:45:40.032Z,0.05
2023-02-14T05:46:39.943Z,0.05
2023-02-14T05:47:40.351Z,0.05
2023-02-14T05:48:41.202Z,0.05
2023-02-14T05:49:41.656Z,0.05
2023-02-14T05:49:50.813Z,0.05
2023-02-14T05:50:51.588Z,0.05
2023-02-14T05:51:52.639Z,0.05
2023-02-14T05:52:52.603Z,0.05
2023-02-14T05:53:53.090Z,0.09
2023-02-14T05:54:53.967Z,0.09
2023-02-14T05:55:54.275Z,0.09
2023-02-14T05:56:54.589Z,0.09
2023-02-14T05:57:55.456Z,0.14
2023-02-14T05:58:55.666Z,0.14
2023-02-14T05:59:55.949Z,0.18
2023-02-14T06:00:56.141Z,0.18
2023-02-14T06:01:56.327Z,0.22
2023-02-14T06:02:57.220Z,0.27
2023-02-14T06:03:58.197Z,0.31
2023-02-14T06:04:59.029Z,0.41
2023-02-14T06:05:59.021Z,0.50
2023-02-14T06:06:59.865Z,0.58
2023-02-14T06:08:00.455Z,0.72
2023-02-14T06:09:01.393Z,0.81
2023-02-14T06:10:02.326Z,0.94
2023-02-14T06:11:03.281Z,1.17
2023-02-14T06:12:03.281Z,1.44
2023-02-14T06:13:03.602Z,1.66
2023-02-14T06:14:04.173Z,2.03
2023-02-14T06:15:04.288Z,2.57
2023-02-14T06:16:04.664Z,3.06
2023-02-14T06:17:05.593Z,3.73
2023-02-14T06:18:06.127Z,4.45
2023-02-14T06:19:06.581Z,5.49
2023-02-14T06:20:07.483Z,6.57
2023-02-14T06:20:19.419Z,6.80
2023-02-14T06:21:19.615Z,8.23
2023-02-14T06:22:19.814Z,9.94
2023-02-14T06:23:20.665Z,12.15
2023-02-14T06:24:21.517Z,14.85
2023-02-14T06:25:21.706Z,17.28
2023-02-14T06:26:22.145Z,20.07
2023-02-14T06:27:22.197Z,24.12
2023-02-14T06:28:22.421Z,28.26
2023-02-14T06:29:22.826Z,32.58
2023-02-14T06:30:23.443Z,38.34
2023-02-14T06:31:23.534Z,43.56
2023-02-14T06:32:23.694Z,50.40
2023-02-14T06:33:24.330Z,57.60
2023-02-14T06:34:25.297Z,64.44
2023-02-14T06:35:26.227Z,72.36
2023-02-14T06:36:27.117Z,85.32
2023-02-14T06:37:27.217Z,93.60
2023-02-14T06:38:27.289Z,102.96
2023-02-14T06:39:27.965Z,113.04
2023-02-14T06:40:28.219Z,126.00
2023-02-14T06:41:28.881Z,140.40
2023-02-14T06:42:29.396Z,157.68
2023-02-14T06:43:29.721Z,167.76
2023-02-14T06:44:29.847Z,180.00
2023-02-14T06:45:29.894Z,197.28
2023-02-14T06:46:30.614Z,217.44
2023-02-14T06:47:30.689Z,227.52
2023-02-14T06:48:32.301Z,239.04
2023-02-14T06:49:31.876Z,247.68
2023-02-14T06:50:32.582Z,269.28
2023-02-14T06:51:33.377Z,290.88
2023-02-14T06:51:42.101Z,290.88
2023-02-14T06:52:42.913Z,303.84
2023-02-14T06:53:43.756Z,329.76
2023-02-14T06:54:44.680Z,355.68
2023-02-14T06:55:45.418Z,385.92
2023-02-14T06:56:45.441Z,397.44
2023-02-14T06:57:45.755Z,411.84
2023-02-14T06:58:46.376Z,449.28
2023-02-14T06:59:46.530Z,480.96
2023-02-14T07:00:47.421Z,486.72
2023-02-14T07:01:47.472Z,501.12
2023-02-14T07:02:47.971Z,529.92
2023-02-14T07:03:47.747Z,567.36
2023-02-14T07:04:48.230Z,593.28
2023-02-14T07:05:48.568Z,596.16
2023-02-14T07:06:48.832Z,604.80
2023-02-14T07:07:49.467Z,622.08
2023-02-14T07:08:50.105Z,639.36
2023-02-14T07:09:51.013Z,668.16
2023-02-14T07:10:51.838Z,682.56
2023-02-14T07:11:52.208Z,691.20
2023-02-14T07:12:52.329Z,725.76
2023-02-14T07:13:52.460Z,743.04
2023-02-14T07:14:52.545Z,789.12
2023-02-14T07:15:53.229Z,806.40
2023-02-14T07:16:53.724Z,823.68
2023-02-14T07:17:54.585Z,846.72
2023-02-14T07:18:55.034Z,910.08
2023-02-14T07:19:55.366Z,933.12
2023-02-14T07:20:55.863Z,927.36
2023-02-14T07:21:56.075Z,921.60
2023-02-14T07:22:56.567Z,967.68
2023-02-14T07:23:56.832Z,1111.68
2023-02-14T07:24:06.035Z,1105.92
2023-02-14T07:25:06.380Z,1071.36
2023-02-14T07:26:07.329Z,1094.40
2023-02-14T07:27:08.209Z,1088.64
2023-02-14T07:28:08.486Z,1088.64
2023-02-14T07:29:09.192Z,1077.12
2023-02-14T07:30:09.789Z,1111.68
2023-02-14T07:31:10.432Z,1111.68
2023-02-14T07:32:11.403Z,1128.96
2023-02-14T07:33:11.312Z,1203.84
2023-02-14T07:34:11.946Z,1180.80
2023-02-14T07:35:14.384Z,1198.08
2023-02-14T07:36:13.226Z,1175.04
2023-02-14T07:37:13.964Z,1221.12
2023-02-14T07:38:14.323Z,1198.08
2023-02-14T07:39:15.191Z,1226.88
2023-02-14T07:40:15.851Z,1342.08
2023-02-14T07:41:15.991Z,1347.84
2023-02-14T07:42:16.252Z,1388.16
2023-02-14T07:43:16.320Z,1382.40
2023-02-14T07:44:16.601Z,1451.52
2023-02-14T07:45:21.654Z,1457.28
2023-02-14T07:46:17.860Z,1578.24
2023-02-14T07:47:18.720Z,1612.80
2023-02-14T07:48:18.731Z,1497.60
2023-02-14T07:49:19.289Z,1612.80
2023-02-14T07:50:19.953Z,1566.72
2023-02-14T07:51:20.016Z,1681.92
2023-02-14T07:52:20.033Z,1693.44
2023-02-14T07:53:20.267Z,1635.84
2023-02-14T07:54:20.465Z,1797.12
2023-02-14T07:54:29.041Z,1843.20
2023-02-14T07:55:29.195Z,1900.80
2023-02-14T07:56:30.014Z,1889.28
2023-02-14T07:57:30.035Z,1992.96
2023-02-14T07:58:30.045Z,2073.60
2023-02-14T07:59:30.822Z,2062.08
2023-02-14T08:00:31.832Z,2223.36
2023-02-14T08:01:31.960Z,2234.88
2023-02-14T08:02:32.070Z,1981.44
2023-02-14T08:03:32.916Z,2165.76
2023-02-14T08:04:34.059Z,2384.64
2023-02-14T08:05:34.814Z,2096.64
2023-02-14T08:06:35.546Z,2096.64
2023-02-14T08:07:36.413Z,2177.28
2023-02-14T08:08:36.613Z,2234.88
2023-02-14T08:09:37.575Z,2246.40
2023-02-14T08:10:38.366Z,2292.48
2023-02-14T08:11:39.361Z,2430.72
2023-02-14T08:12:39.691Z,2545.92
2023-02-14T08:13:39.721Z,2557.44
2023-02-14T08:14:40.553Z,2638.08
2023-02-14T08:15:41.392Z,2753.28
2023-02-14T08:16:42.174Z,2787.84
2023-02-14T08:17:43.058Z,2822.40
2023-02-14T08:18:43.234Z,2730.24
2023-02-14T08:19:43.997Z,2822.40
2023-02-14T08:20:44.659Z,2903.04
2023-02-14T08:21:45.262Z,2810.88
2023-02-14T08:22:47.185Z,2741.76
2023-02-14T08:23:47.604Z,2903.04
2023-02-14T08:24:47.157Z,3110.40
2023-02-14T08:25:47.257Z,3133.44
2023-02-14T08:25:56.029Z,3110.40
2023-02-14T08:26:56.398Z,3041.28
2023-02-14T08:27:57.122Z,3432.96
2023-02-14T08:28:57.606Z,3571.20
2023-02-14T08:29:58.032Z,3732.48
2023-02-14T08:30:58.948Z,3824.64
2023-02-14T08:31:59.377Z,3824.64
2023-02-14T08:32:59.574Z,3962.88
2023-02-14T08:33:59.854Z,4216.32
2023-02-14T08:34:59.915Z,4078.08
2023-02-14T08:36:00.301Z,4193.28
2023-02-14T08:37:01.124Z,4515.84
2023-02-14T08:38:01.357Z,4561.92
2023-02-14T08:39:01.868Z,4538.88
2023-02-14T08:40:02.011Z,4723.20
2023-02-14T08:41:05.215Z,4746.24
2023-02-14T08:42:04.262Z,4815.36
2023-02-14T08:43:03.641Z,4999.68
2023-02-14T08:44:04.058Z,4953.60
2023-02-14T08:45:04.791Z,4976.64
2023-02-14T08:46:05.544Z,5045.76
2023-02-14T08:47:06.147Z,5137.92
2023-02-14T08:48:06.810Z,5506.56
2023-02-14T08:49:08.389Z,5621.76
2023-02-14T08:50:07.346Z,5829.12
2023-02-14T08:51:07.505Z,5690.88
2023-02-14T08:52:08.385Z,5829.12
2023-02-14T08:53:08.466Z,6220.80
2023-02-14T08:54:09.336Z,6266.88
2023-02-14T08:55:10.049Z,6036.48
2023-02-14T08:56:10.747Z,6036.48
2023-02-14T08:56:19.497Z,6036.48
2023-02-14T08:57:20.385Z,5806.08
2023-02-14T08:58:21.036Z,5736.96
2023-02-14T08:59:21.449Z,5990.40
2023-02-14T09:00:22.093Z,6174.72
2023-02-14T09:01:22.139Z,6543.36
2023-02-14T09:02:22.827Z,7142.40
2023-02-14T09:03:23.768Z,7004.16
2023-02-14T09:04:24.699Z,6543.36
2023-02-14T09:05:25.413Z,6727.68
2023-02-14T09:06:26.166Z,7188.48
2023-02-14T09:07:26.809Z,7234.56
2023-02-14T09:08:27.032Z,7004.16
2023-02-14T09:09:28.012Z,7004.16
2023-02-14T09:10:28.158Z,7280.64
2023-02-14T09:11:28.999Z,7418.88
2023-02-14T09:12:28.989Z,7695.36
2023-02-14T09:13:29.091Z,8156.16
2023-02-14T09:14:32.066Z,8570.88
2023-02-14T09:15:30.709Z,8432.64
2023-02-14T09:16:31.339Z,8294.40
2023-02-14T09:17:31.551Z,8432.64
2023-02-14T09:18:31.914Z,8156.16
2023-02-14T09:19:32.789Z,7971.84
2023-02-14T09:20:33.677Z,8017.92
2023-02-14T09:21:33.736Z,8432.64
2023-02-14T09:22:34.529Z,9216.00
2023-02-14T09:23:34.591Z,8847.36
2023-02-14T09:24:35.528Z,8478.72
2023-02-14T09:25:36.380Z,9077.76
2023-02-14T09:26:37.261Z,9216.00
2023-02-14T09:27:37.937Z,9400.32
2023-02-14T09:28:38.805Z,9354.24
2023-02-14T09:29:38.776Z,9538.56
2023-02-14T09:29:47.994Z,9630.72
2023-02-14T09:30:48.538Z,9861.12
2023-02-14T09:31:49.265Z,9676.80
2023-02-14T09:32:49.935Z,9861.12
2023-02-14T09:33:49.998Z,10137.60
2023-02-14T09:34:50.740Z,10690.56
2023-02-14T09:35:51.242Z,10644.48
2023-02-14T09:36:52.151Z,10321.92
2023-02-14T09:37:53.195Z,10275.84
2023-02-14T09:38:53.660Z,9907.20
2023-02-14T09:39:54.081Z,10137.60
2023-02-14T09:40:54.350Z,10321.92
2023-02-14T09:41:54.811Z,10644.48
2023-02-14T09:42:56.532Z,10782.72
2023-02-14T09:43:55.723Z,10414.08
2023-02-14T09:44:55.875Z,9768.96
2023-02-14T09:45:56.164Z,9953.28
2023-02-14T09:46:56.361Z,10598.40
2023-02-14T09:47:56.961Z,11059.20
2023-02-14T09:48:57.443Z,11013.12
2023-02-14T09:49:57.701Z,10644.48
2023-02-14T09:50:57.866Z,10368.00
2023-02-14T09:51:58.359Z,9861.12
2023-02-14T09:52:58.642Z,9861.12
2023-02-14T09:53:59.272Z,9768.96
2023-02-14T09:54:59.892Z,9722.88
2023-02-14T09:56:00.498Z,9907.20
2023-02-14T09:57:01.040Z,10506.24
2023-02-14T09:58:01.217Z,9999.36
2023-02-14T09:59:01.849Z,10229.76
2023-02-14T10:00:02.801Z,10368.00
2023-02-14T10:01:03.443Z,10414.08
2023-02-14T10:01:12.391Z,10368.00
2023-02-14T10:02:12.556Z,10183.68
2023-02-14T10:03:13.097Z,9815.04
2023-02-14T10:04:13.786Z,9861.12
2023-02-14T10:05:14.675Z,10920.96
2023-02-14T10:06:15.218Z,11105.28
2023-02-14T10:07:15.698Z,10874.88
2023-02-14T10:08:16.338Z,11013.12
2023-02-14T10:09:16.780Z,12441.60
2023-02-14T10:10:17.443Z,12810.24
2023-02-14T10:11:18.390Z,13086.72
2023-02-14T10:12:18.579Z,13178.88
2023-02-14T10:13:19.377Z,12718.08
2023-02-14T10:14:20.330Z,12810.24
2023-02-14T10:15:21.004Z,12257.28
2023-02-14T10:16:21.985Z,11796.48
2023-02-14T10:17:21.962Z,11750.40
2023-02-14T10:18:21.963Z,12718.08
2023-02-14T10:19:22.732Z,12625.92
2023-02-14T10:20:23.328Z,11980.80
2023-02-14T10:21:23.368Z,12165.12
2023-02-14T10:22:23.586Z,11750.40
2023-02-14T10:23:23.798Z,12257.28
2023-02-14T10:24:24.707Z,11335.68
2023-02-14T10:25:25.589Z,11658.24
2023-02-14T10:26:25.690Z,12441.60
2023-02-14T10:27:26.669Z,12349.44
2023-02-14T10:28:26.945Z,12072.96
2023-02-14T10:29:27.014Z,11704.32
2023-02-14T10:30:27.405Z,11888.64
2023-02-14T10:31:27.943Z,12810.24
2023-02-14T10:32:28.217Z,12257.28
2023-02-14T10:33:28.352Z,11796.48
2023-02-14T10:34:28.639Z,12257.28
2023-02-14T10:34:37.420Z,12257.28
2023-02-14T10:35:38.058Z,12441.60
2023-02-14T10:36:38.871Z,11888.64
2023-02-14T10:37:39.858Z,11520.00
2023-02-14T10:38:40.368Z,11658.24
2023-02-14T10:39:41.051Z,12072.96
2023-02-14T10:40:41.630Z,12625.92
2023-02-14T10:41:41.809Z,12810.24
2023-02-14T10:42:42.498Z,13363.20
2023-02-14T10:43:43.020Z,13363.20
2023-02-14T10:44:43.743Z,13178.88
2023-02-14T10:45:44.265Z,12072.96
2023-02-14T10:46:45.240Z,15298.56
2023-02-14T10:47:46.121Z,16128.00
2023-02-14T10:48:46.789Z,16220.16
2023-02-14T10:49:47.768Z,16680.96
2023-02-14T10:50:47.833Z,14745.60
2023-02-14T10:51:48.602Z,13639.68
2023-02-14T10:52:49.037Z,14284.80
2023-02-14T10:53:49.677Z,14100.48
2023-02-14T10:54:50.570Z,18063.36
2023-02-14T10:55:50.971Z,14008.32
2023-02-14T10:56:51.198Z,13086.72
2023-02-14T10:57:51.519Z,12902.40
2023-02-14T10:58:52.362Z,12994.56
2023-02-14T10:59:52.395Z,13178.88
2023-02-14T11:00:52.425Z,13916.16
2023-02-14T11:01:52.816Z,16496.64
2023-02-14T11:02:53.275Z,13086.72
2023-02-14T11:03:53.907Z,12625.92
2023-02-14T11:04:54.734Z,12810.24
2023-02-14T11:05:55.114Z,14376.96
2023-02-14T11:06:03.829Z,14008.32
2023-02-14T11:07:04.520Z,12072.96
2023-02-14T11:08:04.910Z,11381.76
2023-02-14T11:09:05.880Z,13455.36
2023-02-14T11:10:05.908Z,11980.80
2023-02-14T11:11:06.544Z,16312.32
2023-02-14T11:12:07.200Z,22394.88
2023-02-14T11:13:07.717Z,23777.28
2023-02-14T11:14:07.745Z,19906.56
2023-02-14T11:15:08.569Z,24883.20
2023-02-14T11:16:08.968Z,24330.24
2023-02-14T11:17:09.776Z,17786.88
2023-02-14T11:18:10.653Z,24883.20
2023-02-14T11:19:11.501Z,24883.20
2023-02-14T11:20:12.174Z,24514.56
2023-02-14T11:21:13.102Z,23224.32
2023-02-14T11:22:14.040Z,23961.60
2023-02-14T11:23:14.706Z,24698.88
2023-02-14T11:24:15.725Z,24330.24
2023-02-14T11:25:16.261Z,24883.20
2023-02-14T11:26:16.639Z,24514.56
2023-02-14T11:27:17.342Z,24145.92
2023-02-14T11:28:18.108Z,24883.20
2023-02-14T11:29:18.757Z,24698.88
2023-02-14T11:30:19.364Z,25067.52
2023-02-14T11:31:19.427Z,21565.44
2023-02-14T11:32:20.088Z,23961.60
2023-02-14T11:33:20.511Z,22763.52
2023-02-14T11:34:21.068Z,24145.92
2023-02-14T11:35:21.403Z,24145.92
2023-02-14T11:36:21.399Z,24145.92
2023-02-14T11:37:22.213Z,23961.60
2023-02-14T11:38:23.071Z,24514.56
2023-02-14T11:39:23.213Z,24514.56
2023-02-14T11:39:32.353Z,24514.56
2023-02-14T11:40:33.242Z,25067.52
2023-02-14T11:41:33.542Z,25251.84
2023-02-14T11:42:34.344Z,25436.16
2023-02-14T11:43:34.412Z,25251.84
2023-02-14T11:44:34.431Z,25067.52
2023-02-14T11:45:34.619Z,25251.84
2023-02-14T11:46:38.476Z,25251.84
2023-02-14T11:47:36.104Z,25436.16
2023-02-14T11:48:39.016Z,25620.48
2023-02-14T11:49:37.865Z,25804.80
2023-02-14T11:50:38.527Z,25804.80
2023-02-14T11:51:39.488Z,26173.44
2023-02-14T11:52:39.783Z,25989.12
2023-02-14T11:53:40.575Z,25989.12
2023-02-14T11:54:41.266Z,25989.12
2023-02-14T11:55:42.206Z,25620.48
2023-02-14T11:56:43.148Z,25436.16
2023-02-14T11:57:43.874Z,25436.16
2023-02-14T11:58:44.811Z,25251.84
2023-02-14T11:59:45.550Z,25620.48
2023-02-14T12:00:46.373Z,25620.48
2023-02-14T12:01:47.356Z,25620.48
2023-02-14T12:02:48.329Z,25804.80
2023-02-14T12:03:48.520Z,26173.44
2023-02-14T12:04:49.326Z,25989.12
2023-02-14T12:05:49.838Z,25989.12
2023-02-14T12:06:50.540Z,25989.12
2023-02-14T12:07:51.296Z,25804.80
2023-02-14T12:08:51.419Z,25989.12
2023-02-14T12:09:51.784Z,25989.12
2023-02-14T12:10:51.962Z,25989.12
2023-02-14T12:11:01.465Z,25989.12
2023-02-14T12:12:01.388Z,26173.44
2023-02-14T12:13:01.917Z,26173.44
2023-02-14T12:14:02.666Z,26173.44
2023-02-14T12:15:03.253Z,26173.44
2023-02-14T12:16:03.705Z,26357.76
2023-02-14T12:17:04.075Z,26357.76
2023-02-14T12:18:04.213Z,26542.08
2023-02-14T12:19:04.844Z,26726.40
2023-02-14T12:20:05.641Z,26357.76
2023-02-14T12:21:06.289Z,26357.76
2023-02-14T12:22:06.966Z,25989.12
2023-02-14T12:23:07.613Z,25989.12
2023-02-14T12:24:07.668Z,25804.80
2023-02-14T12:25:08.207Z,25804.80
2023-02-14T12:26:08.998Z,25804.80
2023-02-14T12:27:09.483Z,23224.32
2023-02-14T12:28:10.248Z,23224.32
2023-02-14T12:29:11.008Z,25989.12
2023-02-14T12:30:11.098Z,25989.12
2023-02-14T12:31:11.953Z,25989.12
2023-02-14T12:32:12.701Z,25804.80
2023-02-14T12:33:13.312Z,25620.48
2023-02-14T12:34:14.083Z,25620.48
2023-02-14T12:35:14.397Z,25436.16
2023-02-14T12:36:15.352Z,25436.16
2023-02-14T12:37:16.125Z,25251.84
2023-02-14T12:38:16.860Z,23961.60
2023-02-14T12:39:17.495Z,17971.20
2023-02-14T12:40:18.059Z,20643.84
2023-02-14T12:41:18.506Z,24514.56
2023-02-14T12:42:19.438Z,25620.48
2023-02-14T12:42:32.082Z,25620.48
2023-02-14T12:43:32.169Z,25620.48
2023-02-14T12:44:32.556Z,25251.84
2023-02-14T12:45:33.225Z,22763.52
2023-02-14T12:46:33.452Z,23408.64
2023-02-14T12:47:33.718Z,19261.44
2023-02-14T12:48:34.304Z,20275.20
2023-02-14T12:49:34.315Z,18432.00
2023-02-14T12:50:34.672Z,14284.80
2023-02-14T12:51:34.936Z,20090.88
2023-02-14T12:52:35.408Z,25067.52
2023-02-14T12:53:35.898Z,24698.88
2023-02-14T12:54:36.680Z,24883.20
2023-02-14T12:55:37.565Z,24883.20
2023-02-14T12:56:37.577Z,24698.88
2023-02-14T12:57:38.270Z,24698.88
2023-02-14T12:58:38.860Z,24145.92
2023-02-14T12:59:39.160Z,23961.60
2023-02-14T13:00:39.374Z,23592.96
2023-02-14T13:01:39.951Z,20459.52
2023-02-14T13:02:40.668Z,20090.88
2023-02-14T13:03:40.984Z,18432.00
2023-02-14T13:04:41.676Z,18247.68
2023-02-14T13:05:42.377Z,22026.24
2023-02-14T13:06:42.810Z,23777.28
2023-02-14T13:07:43.657Z,22579.20
2023-02-14T13:08:44.621Z,21934.08
2023-02-14T13:09:45.186Z,17971.20
2023-02-14T13:10:45.591Z,16035.84
2023-02-14T13:11:46.029Z,18063.36
2023-02-14T13:12:46.613Z,18708.48
2023-02-14T13:13:47.127Z,22302.72
2023-02-14T13:13:55.889Z,22855.68
2023-02-14T13:14:55.839Z,23224.32
2023-02-14T13:15:56.700Z,21657.60
2023-02-14T13:16:57.086Z,17418.24
2023-02-14T13:17:57.868Z,17418.24
2023-02-14T13:18:58.284Z,15575.04
2023-02-14T13:19:58.443Z,12902.40
2023-02-14T13:20:59.037Z,14284.80
2023-02-14T13:21:59.914Z,15667.20
2023-02-14T13:22:59.869Z,14469.12
2023-02-14T13:23:59.993Z,16404.48
2023-02-14T13:25:00.907Z,17418.24
2023-02-14T13:26:01.594Z,14745.60
2023-02-14T13:27:02.543Z,14469.12
2023-02-14T13:28:03.245Z,15390.72
2023-02-14T13:29:03.925Z,18063.36
2023-02-14T13:30:04.600Z,12994.56
2023-02-14T13:31:05.896Z,13639.68
2023-02-14T13:32:06.333Z,15022.08
2023-02-14T13:33:07.029Z,13086.72
2023-02-14T13:34:08.044Z,12718.08
2023-02-14T13:35:08.305Z,11335.68
2023-02-14T13:36:08.623Z,12441.60
2023-02-14T13:37:08.688Z,13547.52
2023-02-14T13:38:09.877Z,10690.56
2023-02-14T13:39:09.654Z,11473.92
2023-02-14T13:40:10.257Z,11980.80
2023-02-14T13:41:10.262Z,11105.28
2023-02-14T13:42:10.828Z,8893.44
2023-02-14T13:43:11.274Z,8432.64
2023-02-14T13:44:11.597Z,9907.20
2023-02-14T13:44:20.406Z,10321.92
2023-02-14T13:45:21.254Z,9768.96
2023-02-14T13:46:22.249Z,10552.32
2023-02-14T13:47:22.397Z,7833.60
2023-02-14T13:48:22.977Z,5898.24
2023-02-14T13:49:23.904Z,6405.12
2023-02-14T13:50:24.842Z,7234.56
2023-02-14T13:51:25.046Z,10275.84
2023-02-14T13:52:25.072Z,9768.96
2023-02-14T13:53:25.957Z,8616.96
2023-02-14T13:54:26.106Z,9446.40
2023-02-14T13:55:26.365Z,11243.52
2023-02-14T13:56:27.019Z,15114.24
2023-02-14T13:57:27.010Z,13731.84
2023-02-14T13:58:27.424Z,11059.20
2023-02-14T13:59:30.342Z,10275.84
2023-02-14T14:00:28.769Z,9630.72
2023-02-14T14:01:29.184Z,8478.72
2023-02-14T14:02:31.794Z,7925.76
2023-02-14T14:03:29.936Z,8017.92
2023-02-14T14:04:30.501Z,6589.44
2023-02-14T14:05:30.846Z,6220.80
2023-02-14T14:06:30.948Z,7280.64
2023-02-14T14:07:33.925Z,9123.84
2023-02-14T14:08:31.551Z,12902.40
2023-02-14T14:09:34.145Z,11427.84
2023-02-14T14:10:32.088Z,9815.04
2023-02-14T14:11:32.353Z,11381.76
2023-02-14T14:12:33.262Z,12994.56
2023-02-14T14:13:33.575Z,10368.00
2023-02-14T14:14:34.118Z,8939.52
2023-02-14T14:15:43.697Z,8524.80
2023-02-14T14:16:46.256Z,6773.76
2023-02-14T14:17:44.537Z,8755.20
2023-02-14T14:18:44.684Z,12349.44
2023-02-14T14:19:47.047Z,14469.12
2023-02-14T14:20:45.219Z,14745.60
2023-02-14T14:21:45.291Z,9676.80
2023-02-14T14:22:45.547Z,12625.92
2023-02-14T14:23:46.042Z,15114.24
2023-02-14T14:24:46.027Z,13916.16
2023-02-14T14:25:46.460Z,14745.60
2023-02-14T14:26:46.802Z,13455.36
2023-02-14T14:27:47.440Z,13086.72
2023-02-14T14:28:47.568Z,12902.40
2023-02-14T14:29:48.114Z,12810.24
2023-02-14T14:30:48.609Z,13916.16
2023-02-14T14:31:48.907Z,13639.68
2023-02-14T14:32:51.674Z,14192.64
2023-02-14T14:33:49.371Z,12902.40
2023-02-14T14:34:49.630Z,13547.52
2023-02-14T14:35:51.916Z,12257.28
2023-02-14T14:36:50.404Z,12718.08
2023-02-14T14:37:51.215Z,16680.96
2023-02-14T14:38:51.967Z,15298.56
2023-02-14T14:39:51.999Z,12441.60
2023-02-14T14:40:52.909Z,12533.76
2023-02-14T14:41:52.957Z,14745.60
2023-02-14T14:42:53.161Z,13178.88
2023-02-14T14:43:53.456Z,11612.16
2023-02-14T14:44:53.504Z,13271.04
2023-02-14T14:45:53.886Z,13363.20
2023-02-14T14:47:04.806Z,13178.88
2023-02-14T14:48:05.044Z,14284.80
2023-02-14T14:49:07.701Z,14008.32
2023-02-14T14:50:09.990Z,10598.40
2023-02-14T14:51:06.525Z,9077.76
2023-02-14T14:52:06.496Z,9538.56
2023-02-14T14:53:07.447Z,9492.48
2023-02-14T14:54:08.208Z,8663.04
2023-02-14T14:55:10.692Z,8110.08
2023-02-14T14:56:09.442Z,8570.88
2023-02-14T14:57:09.468Z,9354.24
2023-02-14T14:58:10.251Z,9077.76
2023-02-14T14:59:10.738Z,10091.52
2023-02-14T15:00:11.407Z,10874.88
2023-02-14T15:01:11.697Z,11566.08
2023-02-14T15:02:12.125Z,13086.72
2023-02-14T15:03:12.419Z,13271.04
2023-02-14T15:04:15.323Z,13178.88
2023-02-14T15:05:13.505Z,12994.56
2023-02-14T15:06:14.088Z,12810.24
2023-02-14T15:07:14.573Z,12533.76
2023-02-14T15:08:15.424Z,12349.44
2023-02-14T15:09:15.981Z,12072.96
2023-02-14T15:10:16.115Z,11888.64
2023-02-14T15:11:16.503Z,11796.48
2023-02-14T15:12:17.233Z,11750.40
2023-02-14T15:13:17.396Z,11612.16
2023-02-14T15:14:20.449Z,11427.84
2023-02-14T15:15:18.065Z,11197.44
2023-02-14T15:16:18.444Z,11059.20
2023-02-14T15:17:18.927Z,10967.04
2023-02-14T15:18:19.070Z,10828.80
2023-02-14T15:19:19.450Z,10644.48
2023-02-14T15:19:28.852Z,10644.48
2023-02-14T15:20:28.822Z,10506.24
2023-02-14T15:21:31.680Z,10414.08
2023-02-14T15:22:29.375Z,10275.84
2023-02-14T15:23:29.639Z,10183.68
2023-02-14T15:24:29.829Z,10091.52
2023-02-14T15:25:29.820Z,9999.36
2023-02-14T15:26:30.230Z,9861.12
2023-02-14T15:27:30.981Z,9630.72
2023-02-14T15:28:31.078Z,9446.40
2023-02-14T15:29:31.586Z,9308.16
2023-02-14T15:30:32.491Z,9169.92
2023-02-14T15:31:32.927Z,9031.68
2023-02-14T15:32:36.113Z,8847.36
2023-02-14T15:33:33.666Z,8755.20
2023-02-14T15:34:35.929Z,8616.96
2023-02-14T15:35:34.082Z,8432.64
2023-02-14T15:36:36.838Z,8294.40
2023-02-14T15:37:34.484Z,8110.08
2023-02-14T15:38:35.423Z,7925.76
2023-02-14T15:39:35.962Z,7787.52
2023-02-14T15:40:36.483Z,7557.12
2023-02-14T15:41:37.305Z,7372.80
2023-02-14T15:42:37.391Z,7280.64
2023-02-14T15:43:37.930Z,7096.32
2023-02-14T15:44:39.065Z,6958.08
2023-02-14T15:45:39.334Z,6773.76
2023-02-14T15:46:39.707Z,6635.52
2023-02-14T15:47:40.091Z,6497.28
2023-02-14T15:48:41.284Z,6266.88
2023-02-14T15:49:40.801Z,6128.64
2023-02-14T15:50:41.112Z,5944.32
2023-02-14T15:50:49.868Z,5944.32
2023-02-14T15:51:50.814Z,5829.12
2023-02-14T15:52:51.281Z,5713.92
2023-02-14T15:53:51.469Z,5552.64
2023-02-14T15:54:58.106Z,5207.04
2023-02-14T15:55:52.163Z,4884.48
2023-02-14T15:56:55.203Z,4953.60
2023-02-14T15:57:52.848Z,5068.80
2023-02-14T15:58:58.942Z,4953.60
2023-02-14T15:59:53.883Z,4584.96
2023-02-14T16:00:54.344Z,3778.56
2023-02-14T16:01:54.766Z,3133.44
2023-02-14T16:03:02.306Z,2937.60
2023-02-14T16:03:55.183Z,2707.20
2023-02-14T16:04:56.370Z,2280.96
2023-02-14T16:05:55.771Z,2050.56
2023-02-14T16:06:56.124Z,1958.40
2023-02-14T16:07:56.866Z,1981.44
2023-02-14T16:08:57.384Z,2073.60
2023-02-14T16:10:06.135Z,2119.68
2023-02-14T16:10:58.913Z,2085.12
2023-02-14T16:12:06.306Z,2200.32
2023-02-14T16:13:01.912Z,2338.56
2023-02-14T16:13:59.450Z,2292.48
2023-02-14T16:15:01.898Z,2234.88
2023-02-14T16:15:59.896Z,2085.12
2023-02-14T16:17:00.155Z,1935.36
2023-02-14T16:18:00.402Z,1808.64
2023-02-14T16:19:03.328Z,1635.84
2023-02-14T16:20:01.168Z,1422.72
2023-02-14T16:21:04.088Z,1238.40
2023-02-14T16:22:02.048Z,1123.20
2023-02-14T16:23:04.961Z,1013.76
2023-02-14T16:24:03.223Z,933.12
2023-02-14T16:25:01.984Z,898.56
2023-02-14T16:25:53.945Z,852.48
2023-02-14T16:26:53.992Z,722.88
2023-02-14T16:28:22.367Z,673.92
2023-02-14T16:29:22.557Z,642.24
2023-02-14T16:30:22.696Z,610.56
2023-02-14T16:31:23.031Z,578.88
2023-02-14T16:32:24.021Z,547.20
2023-02-14T16:33:24.711Z,515.52
2023-02-14T16:34:24.841Z,486.72
2023-02-14T16:35:25.109Z,457.92
2023-02-14T16:36:25.948Z,429.12
2023-02-14T16:37:25.945Z,400.32
2023-02-14T16:38:26.827Z,374.40
2023-02-14T16:39:27.278Z,349.92
2023-02-14T16:40:27.531Z,325.44
2023-02-14T16:41:27.692Z,302.40
2023-02-14T16:42:28.487Z,279.36
2023-02-14T16:43:29.364Z,257.76
2023-02-14T16:44:29.735Z,237.60
2023-02-14T16:45:30.163Z,217.44
2023-02-14T16:46:30.988Z,198.72
2023-02-14T16:47:31.918Z,181.44